Check out our new PWSWeather beta!
PWSweather.com
Personal Weather Stations
Station Observations
SOUTHARDNJ
Southard, Howell, NJ 07731

SouthardHowell, NJ 07731

Lat: 40.13020859666565, Lon: -74.21449720859528

Elevation: 112

Station Type: Davis VP2 Plus

Latest ConditionsUpdated 7:05:37 AM EST Thursday, Feb 27, 2020
Currently Today's Max Today's Min Today's Average
Temperature 40.1°F4.5°C 45.9°F7.7°C 40.1°F4.5°C 43.4°F6.3°C
Dew Point 35.9°F2.2°C 45.0°F7.2°C 35.9°F2.2°C 42.1°F5.6°C
Winds 4.6 mph NW7.4 kmh NW 5.8 mph -9.3 kmh - - 3.2 mph 5.1 kmh
Wind Gusts 11.5 mph18.5 kmh 17.3 mph27.8 kmh - -
Humidity 85% 97% 85% 95%
Pressure 29.45 in997.3 mb 29.55 in1000.7 mb 29.34 in993.6 mb -
Precipitation - 0.40 in10.2 mm - -
Hour Temp Dew Point Humidity Winds Wind Gusts Pressure Precip Precip Rate Daily Precip Total
07:05 AM 40.1°F4.5°C 35.9°F2.2°C 85% 4.6 mph NW7.4 kmh NW 11.5 mph18.5 kmh 29.45 in997.3 mb - 0.40 in10.2 mm 0.40 in10.2 mm
07:00 AM 40.2°F4.6°C 36.7°F2.6°C 87% 4.6 mph N7.4 kmh N 11.5 mph18.5 kmh 29.44 in997.0 mb - 0.40 in10.2 mm 0.40 in10.2 mm
06:54 AM 40.3°F4.6°C 36.7°F2.6°C 87% 5.8 mph NNW9.3 kmh NNW 10.3 mph16.6 kmh 29.44 in997.0 mb - 0.40 in10.2 mm 0.40 in10.2 mm
06:48 AM 40.4°F4.7°C 36.8°F2.7°C 87% 5.8 mph NW9.3 kmh NW 17.3 mph27.8 kmh 29.44 in997.0 mb - 0.40 in10.2 mm 0.40 in10.2 mm
06:43 AM 40.9°F4.9°C 38.2°F3.4°C 90% 4.6 mph NW7.4 kmh NW 11.5 mph18.5 kmh 29.43 in996.6 mb - 0.40 in10.2 mm 0.40 in10.2 mm
06:37 AM 41.1°F5.1°C 38.3°F3.5°C 90% 4.6 mph NW7.4 kmh NW 11.5 mph18.5 kmh 29.43 in996.6 mb - 0.40 in10.2 mm 0.40 in10.2 mm
06:31 AM 41.3°F5.2°C 38.8°F3.8°C 91% 3.4 mph NW5.5 kmh NW 9.2 mph14.8 kmh 29.43 in996.6 mb - 0.40 in10.2 mm 0.40 in10.2 mm
06:26 AM 41.2°F5.1°C 38.8°F3.8°C 91% 5.8 mph NW9.3 kmh NW 11.5 mph18.5 kmh 29.42 in996.3 mb - 0.40 in10.2 mm 0.40 in10.2 mm
06:20 AM 41.1°F5.1°C 38.6°F3.7°C 91% 4.6 mph NW7.4 kmh NW 11.5 mph18.5 kmh 29.42 in996.3 mb - 0.40 in10.2 mm 0.40 in10.2 mm
06:15 AM 41.0°F5.0°C 38.8°F3.8°C 92% 3.4 mph NW5.5 kmh NW 13.8 mph22.2 kmh 29.42 in996.3 mb - 0.40 in10.2 mm 0.40 in10.2 mm
06:09 AM 40.8°F4.9°C 38.7°F3.7°C 92% 3.4 mph NNW5.5 kmh NNW 5.8 mph9.3 kmh 29.42 in996.3 mb - 0.40 in10.2 mm 0.40 in10.2 mm
06:03 AM 40.9°F4.9°C 38.7°F3.7°C 92% 2.3 mph NW3.7 kmh NW 4.6 mph7.4 kmh 29.41 in995.9 mb - 0.40 in10.2 mm 0.40 in10.2 mm
05:58 AM 40.7°F4.8°C 38.6°F3.7°C 92% 4.6 mph NW7.4 kmh NW 11.5 mph18.5 kmh 29.42 in996.3 mb - 0.40 in10.2 mm 0.40 in10.2 mm
05:52 AM 40.8°F4.9°C 38.7°F3.7°C 92% 2.3 mph WNW3.7 kmh WNW 8.0 mph12.9 kmh 29.41 in995.9 mb - 0.40 in10.2 mm 0.40 in10.2 mm
05:46 AM 40.9°F4.9°C 38.7°F3.7°C 92% 4.6 mph NW7.4 kmh NW 10.3 mph16.6 kmh 29.41 in995.9 mb - 0.40 in10.2 mm 0.40 in10.2 mm
05:41 AM 41.0°F5.0°C 39.1°F3.9°C 93% 3.4 mph NW5.5 kmh NW 6.9 mph11.1 kmh 29.40 in995.6 mb - 0.40 in10.2 mm 0.40 in10.2 mm
05:35 AM 41.1°F5.1°C 39.3°F4.1°C 93% 2.3 mph NW3.7 kmh NW 11.5 mph18.5 kmh 29.39 in995.3 mb - 0.40 in10.2 mm 0.40 in10.2 mm
05:30 AM 41.3°F5.2°C 39.7°F4.3°C 94% 3.4 mph NNW5.5 kmh NNW 9.2 mph14.8 kmh 29.39 in995.3 mb - 0.40 in10.2 mm 0.40 in10.2 mm
05:24 AM 41.4°F5.2°C 39.8°F4.3°C 94% 3.4 mph NW5.5 kmh NW 10.3 mph16.6 kmh 29.37 in994.6 mb - 0.40 in10.2 mm 0.40 in10.2 mm
05:18 AM 41.5°F5.3°C 40.2°F4.6°C 95% 3.4 mph N5.5 kmh N 8.0 mph12.9 kmh 29.37 in994.6 mb - 0.40 in10.2 mm 0.40 in10.2 mm
05:13 AM 42.0°F5.6°C 40.7°F4.8°C 95% 1.1 mph WNW1.8 kmh WNW 6.9 mph11.1 kmh 29.38 in994.9 mb - 0.40 in10.2 mm 0.40 in10.2 mm
05:07 AM 42.2°F5.7°C 40.9°F4.9°C 95% 4.6 mph NW7.4 kmh NW 8.0 mph12.9 kmh 29.37 in994.6 mb - 0.40 in10.2 mm 0.40 in10.2 mm
05:01 AM 42.4°F5.8°C 41.4°F5.2°C 96% 4.6 mph NNW7.4 kmh NNW 10.3 mph16.6 kmh 29.39 in995.3 mb - 0.40 in10.2 mm 0.40 in10.2 mm
04:56 AM 42.6°F5.9°C 41.3°F5.2°C 95% 4.6 mph N7.4 kmh N 10.3 mph16.6 kmh 29.38 in994.9 mb - 0.40 in10.2 mm 0.40 in10.2 mm
04:50 AM 43.5°F6.4°C 42.5°F5.8°C 96% 5.8 mph NW9.3 kmh NW 11.5 mph18.5 kmh 29.37 in994.6 mb - 0.40 in10.2 mm 0.40 in10.2 mm
04:45 AM 44.0°F6.7°C 42.9°F6.1°C 96% 5.8 mph NW9.3 kmh NW 9.2 mph14.8 kmh 29.38 in994.9 mb - 0.40 in10.2 mm 0.40 in10.2 mm
04:39 AM 44.5°F6.9°C 43.4°F6.3°C 96% 3.4 mph NW5.5 kmh NW 4.6 mph7.4 kmh 29.36 in994.2 mb - 0.40 in10.2 mm 0.40 in10.2 mm
04:33 AM 44.6°F7.0°C 43.5°F6.4°C 96% 3.4 mph NNW5.5 kmh NNW 9.2 mph14.8 kmh 29.37 in994.6 mb - 0.40 in10.2 mm 0.40 in10.2 mm
04:28 AM 44.8°F7.1°C 43.8°F6.6°C 96% 3.4 mph NNW5.5 kmh NNW 4.6 mph7.4 kmh 29.37 in994.6 mb - 0.40 in10.2 mm 0.40 in10.2 mm
04:22 AM 44.9°F7.2°C 43.8°F6.6°C 96% 4.6 mph NNW7.4 kmh NNW 11.5 mph18.5 kmh 29.37 in994.6 mb - 0.40 in10.2 mm 0.40 in10.2 mm
04:16 AM 45.4°F7.4°C 44.6°F7.0°C 97% 3.4 mph WNW5.5 kmh WNW 8.0 mph12.9 kmh 29.36 in994.2 mb - 0.40 in10.2 mm 0.40 in10.2 mm
04:11 AM 45.4°F7.4°C 44.6°F7.0°C 97% 2.3 mph NW3.7 kmh NW 4.6 mph7.4 kmh 29.36 in994.2 mb - 0.40 in10.2 mm 0.40 in10.2 mm
04:05 AM 45.8°F7.7°C 45.0°F7.2°C 97% 4.6 mph NNW7.4 kmh NNW 8.0 mph12.9 kmh 29.35 in993.9 mb - 0.39 in9.9 mm 0.39 in9.9 mm
04:00 AM 45.9°F7.7°C 45.0°F7.2°C 97% 4.6 mph NW7.4 kmh NW 11.5 mph18.5 kmh 29.35 in993.9 mb - 0.39 in9.9 mm 0.39 in9.9 mm
03:54 AM 45.5°F7.5°C 44.7°F7.1°C 97% 1.1 mph NW1.8 kmh NW 4.6 mph7.4 kmh 29.35 in993.9 mb - 0.39 in9.9 mm 0.39 in9.9 mm
03:48 AM 45.4°F7.4°C 44.6°F7.0°C 97% Calm Calm 1.1 mph1.8 kmh 29.34 in993.6 mb - 0.38 in9.7 mm 0.38 in9.7 mm
03:43 AM 45.0°F7.2°C 44.2°F6.8°C 97% Calm Calm 3.4 mph5.5 kmh 29.34 in993.6 mb - 0.37 in9.4 mm 0.37 in9.4 mm
03:37 AM 44.8°F7.1°C 44.0°F6.7°C 97% Calm Calm -- 29.34 in993.6 mb - 0.36 in9.1 mm 0.36 in9.1 mm
03:31 AM 44.6°F7.0°C 43.8°F6.6°C 97% Calm Calm -- 29.34 in993.6 mb - 0.36 in9.1 mm 0.36 in9.1 mm
03:26 AM 44.5°F6.9°C 43.7°F6.5°C 97% Calm Calm -- 29.34 in993.6 mb - 0.36 in9.1 mm 0.36 in9.1 mm
03:20 AM 44.5°F6.9°C 43.7°F6.5°C 97% Calm Calm -- 29.34 in993.6 mb - 0.35 in8.9 mm 0.35 in8.9 mm
03:15 AM 44.5°F6.9°C 43.7°F6.5°C 97% Calm Calm -- 29.34 in993.6 mb - 0.35 in8.9 mm 0.35 in8.9 mm
03:09 AM 44.5°F6.9°C 43.7°F6.5°C 97% 1.1 mph SE1.8 kmh SE 2.3 mph3.7 kmh 29.35 in993.9 mb - 0.35 in8.9 mm 0.35 in8.9 mm
03:03 AM 44.5°F6.9°C 43.7°F6.5°C 97% 1.1 mph SE1.8 kmh SE 2.3 mph3.7 kmh 29.35 in993.9 mb - 0.34 in8.6 mm 0.34 in8.6 mm
02:58 AM 44.6°F7.0°C 43.8°F6.6°C 97% 1.1 mph SE1.8 kmh SE 2.3 mph3.7 kmh 29.35 in993.9 mb - 0.34 in8.6 mm 0.34 in8.6 mm
02:52 AM 44.6°F7.0°C 43.8°F6.6°C 97% 1.1 mph SE1.8 kmh SE 3.4 mph5.5 kmh 29.36 in994.2 mb - 0.34 in8.6 mm 0.34 in8.6 mm
02:46 AM 44.6°F7.0°C 43.8°F6.6°C 97% 1.1 mph SE1.8 kmh SE 2.3 mph3.7 kmh 29.36 in994.2 mb - 0.34 in8.6 mm 0.34 in8.6 mm
02:41 AM 44.7°F7.1°C 43.9°F6.6°C 97% 2.3 mph SE3.7 kmh SE 3.4 mph5.5 kmh 29.37 in994.6 mb - 0.33 in8.4 mm 0.33 in8.4 mm
02:35 AM 44.7°F7.1°C 43.9°F6.6°C 97% Calm Calm 2.3 mph3.7 kmh 29.39 in995.3 mb - 0.33 in8.4 mm 0.33 in8.4 mm
02:30 AM 44.7°F7.1°C 43.9°F6.6°C 97% 2.3 mph ESE3.7 kmh ESE 3.4 mph5.5 kmh 29.39 in995.3 mb - 0.33 in8.4 mm 0.33 in8.4 mm
02:24 AM 44.4°F6.9°C 43.6°F6.4°C 97% 3.4 mph E5.5 kmh E 6.9 mph11.1 kmh 29.39 in995.3 mb - 0.33 in8.4 mm 0.33 in8.4 mm
02:18 AM 44.4°F6.9°C 43.6°F6.4°C 97% 3.4 mph E5.5 kmh E 5.8 mph9.3 kmh 29.39 in995.3 mb - 0.33 in8.4 mm 0.33 in8.4 mm
02:13 AM 44.0°F6.7°C 43.2°F6.2°C 97% 5.8 mph SW9.3 kmh SW 11.5 mph18.5 kmh 29.42 in996.3 mb - 0.33 in8.4 mm 0.33 in8.4 mm
02:07 AM 43.9°F6.6°C 43.1°F6.2°C 97% 2.3 mph ESE3.7 kmh ESE 9.2 mph14.8 kmh 29.42 in996.3 mb - 0.33 in8.4 mm 0.33 in8.4 mm
02:01 AM 43.9°F6.6°C 43.1°F6.2°C 97% 2.3 mph SSE3.7 kmh SSE 3.4 mph5.5 kmh 29.42 in996.3 mb - 0.32 in8.1 mm 0.32 in8.1 mm
01:56 AM 43.9°F6.6°C 43.1°F6.2°C 97% 3.4 mph SSE5.5 kmh SSE 9.2 mph14.8 kmh 29.43 in996.6 mb - 0.32 in8.1 mm 0.32 in8.1 mm
01:50 AM 43.9°F6.6°C 43.1°F6.2°C 97% 3.4 mph SE5.5 kmh SE 9.2 mph14.8 kmh 29.44 in997.0 mb - 0.32 in8.1 mm 0.32 in8.1 mm
01:45 AM 43.9°F6.6°C 42.9°F6.1°C 96% 5.8 mph SE9.3 kmh SE 8.0 mph12.9 kmh 29.45 in997.3 mb - 0.32 in8.1 mm 0.32 in8.1 mm
01:39 AM 44.0°F6.7°C 43.2°F6.2°C 97% 3.4 mph SE5.5 kmh SE 6.9 mph11.1 kmh 29.47 in998.0 mb - 0.32 in8.1 mm 0.32 in8.1 mm
01:33 AM 44.1°F6.7°C 43.3°F6.3°C 97% 3.4 mph SE5.5 kmh SE 4.6 mph7.4 kmh 29.47 in998.0 mb - 0.32 in8.1 mm 0.32 in8.1 mm
01:28 AM 44.3°F6.8°C 43.5°F6.4°C 97% 3.4 mph SSE5.5 kmh SSE 8.0 mph12.9 kmh 29.48 in998.3 mb - 0.32 in8.1 mm 0.32 in8.1 mm
01:22 AM 44.3°F6.8°C 43.5°F6.4°C 97% 3.4 mph SSE5.5 kmh SSE 5.8 mph9.3 kmh 29.48 in998.3 mb - 0.32 in8.1 mm 0.32 in8.1 mm
01:16 AM 44.5°F6.9°C 43.7°F6.5°C 97% 5.8 mph SE9.3 kmh SE 11.5 mph18.5 kmh 29.49 in998.6 mb - 0.32 in8.1 mm 0.32 in8.1 mm
01:11 AM 44.5°F6.9°C 43.7°F6.5°C 97% 5.8 mph SE9.3 kmh SE 11.5 mph18.5 kmh 29.49 in998.6 mb - 0.32 in8.1 mm 0.32 in8.1 mm
01:05 AM 44.3°F6.8°C 43.5°F6.4°C 97% 4.6 mph SE7.4 kmh SE 8.0 mph12.9 kmh 29.50 in999.0 mb - 0.31 in7.9 mm 0.31 in7.9 mm
01:00 AM 44.1°F6.7°C 43.3°F6.3°C 97% 2.3 mph SE3.7 kmh SE 8.0 mph12.9 kmh 29.51 in999.3 mb - 0.26 in6.6 mm 0.26 in6.6 mm
12:54 AM 44.1°F6.7°C 43.3°F6.3°C 97% 1.1 mph SE1.8 kmh SE 2.3 mph3.7 kmh 29.52 in999.7 mb - 0.20 in5.1 mm 0.20 in5.1 mm
12:48 AM 44.0°F6.7°C 43.3°F6.3°C 97% 2.3 mph S3.7 kmh S 3.4 mph5.5 kmh 29.52 in999.7 mb - 0.16 in4.1 mm 0.16 in4.1 mm
12:43 AM 44.0°F6.7°C 43.2°F6.2°C 97% 3.4 mph SSE5.5 kmh SSE 9.2 mph14.8 kmh 29.52 in999.7 mb - 0.08 in2.0 mm 0.08 in2.0 mm
12:37 AM 44.0°F6.7°C 43.2°F6.2°C 97% 4.6 mph SSE7.4 kmh SSE 8.0 mph12.9 kmh 29.52 in999.7 mb - 0.07 in1.8 mm 0.07 in1.8 mm
12:26 AM 44.1°F6.7°C 43.3°F6.3°C 97% 4.6 mph SE7.4 kmh SE 10.3 mph16.6 kmh 29.53 in1000.0 mb - 0.04 in1.0 mm 0.04 in1.0 mm
12:20 AM 44.1°F6.7°C 43.3°F6.3°C 97% 3.4 mph SSE5.5 kmh SSE 4.6 mph7.4 kmh 29.55 in1000.7 mb - 0.02 in0.5 mm 0.02 in0.5 mm
12:15 AM 44.1°F6.7°C 43.3°F6.3°C 97% 3.4 mph S5.5 kmh S 11.5 mph18.5 kmh 29.54 in1000.3 mb - 0.01 in0.3 mm 0.01 in0.3 mm
12:09 AM 44.2°F6.8°C 43.4°F6.3°C 97% 5.8 mph SE9.3 kmh SE 9.2 mph14.8 kmh 29.54 in1000.3 mb - 0.01 in0.3 mm 0.01 in0.3 mm
12:03 AM 44.2°F6.8°C 43.4°F6.3°C 97% 4.6 mph SE7.4 kmh SE 9.2 mph14.8 kmh 29.55 in1000.7 mb - 0.01 in0.3 mm 0.01 in0.3 mm